Time;durP1;ratioP1;P1;durP2;ratioP2;P2;SDS_P1;SDS_P2;PMS_P1;PMS_P2;Temp;Humidity;BMP_temperature;BMP_pressure;BME280_temperature;BME280_humidity;BME280_pressure;Samples;Min_cycle;Max_cycle;Signal;HPM_P1;HPM_P2
2023/08/14 00:00:44;;;;;;;14.02;4.60;;;16.70;99.90;;;;;;5053741;28;20092;-68
2023/08/14 00:03:09;;;;;;;15.25;4.25;;;16.80;99.90;;;;;;5053394;28;20025;-68
2023/08/14 00:05:35;;;;;;;13.38;4.78;;;16.70;99.90;;;;;;5053606;28;20033;-68
2023/08/14 00:08:00;;;;;;;11.68;4.43;;;16.70;99.90;;;;;;5053714;28;20109;-70
2023/08/14 00:10:26;;;;;;;11.00;4.10;;;16.70;99.90;;;;;;5053517;28;20085;-69
2023/08/14 00:12:52;;;;;;;19.33;4.22;;;16.70;99.90;;;;;;5052304;28;20078;-70
2023/08/14 00:15:17;;;;;;;13.73;4.00;;;16.70;99.90;;;;;;5053193;28;20112;-68
2023/08/14 00:17:43;;;;;;;16.50;4.72;;;16.70;99.90;;;;;;5053187;28;20040;-67
2023/08/14 00:20:09;;;;;;;12.98;4.07;;;16.60;99.90;;;;;;5053113;28;20040;-69
2023/08/14 00:22:35;;;;;;;15.15;4.38;;;16.70;99.90;;;;;;5053148;28;20021;-70
2023/08/14 00:25:00;;;;;;;14.55;4.40;;;16.60;99.90;;;;;;5052997;28;20033;-68
2023/08/14 00:27:26;;;;;;;16.17;4.35;;;16.60;99.90;;;;;;5053228;28;20055;-70
2023/08/14 00:29:51;;;;;;;15.57;4.63;;;16.60;99.90;;;;;;5052892;28;20033;-68
2023/08/14 00:32:17;;;;;;;14.43;4.40;;;16.60;99.90;;;;;;5053146;28;20036;-68
2023/08/14 00:34:42;;;;;;;16.55;5.15;;;16.60;99.90;;;;;;5052704;28;20079;-67
2023/08/14 00:37:08;;;;;;;14.45;4.55;;;16.60;99.90;;;;;;5052982;28;20040;-68
2023/08/14 00:39:33;;;;;;;21.20;5.35;;;16.60;99.90;;;;;;5052846;28;20021;-69
2023/08/14 00:41:59;;;;;;;12.93;4.32;;;16.60;99.90;;;;;;5052720;28;20090;-69
2023/08/14 00:44:25;;;;;;;15.88;5.32;;;16.60;99.90;;;;;;5052504;28;20081;-67
2023/08/14 00:46:50;;;;;;;15.50;6.57;;;16.50;99.90;;;;;;5052534;28;20457;-67
2023/08/14 00:49:16;;;;;;;20.77;5.65;;;16.50;99.90;;;;;;5052401;28;20388;-67
2023/08/14 00:51:42;;;;;;;14.90;4.53;;;16.50;99.90;;;;;;5053066;28;20036;-68
2023/08/14 00:54:08;;;;;;;14.68;5.82;;;16.50;99.90;;;;;;5052685;28;20165;-67
2023/08/14 00:56:34;;;;;;;14.48;5.30;;;16.50;99.90;;;;;;5051306;28;20021;-67
2023/08/14 00:59:00;;;;;;;15.45;6.13;;;16.50;99.90;;;;;;5052696;28;20025;-70
2023/08/14 01:01:26;;;;;;;14.00;6.13;;;16.60;99.90;;;;;;5052575;28;20388;-69
2023/08/14 01:03:51;;;;;;;16.27;5.60;;;16.50;99.90;;;;;;5052218;28;20025;-70
2023/08/14 01:06:17;;;;;;;15.55;6.38;;;16.50;99.90;;;;;;5052743;28;20120;-68
2023/08/14 01:08:43;;;;;;;17.83;7.10;;;16.50;99.90;;;;;;5051211;28;20032;-68
2023/08/14 01:11:16;;;;;;;16.58;5.60;;;16.50;99.90;;;;;;5052242;28;20405;-69
2023/08/14 01:13:54;;;;;;;18.40;6.55;;;16.50;99.90;;;;;;5052611;28;20037;-69
2023/08/14 01:16:27;;;;;;;14.95;5.35;;;16.50;99.90;;;;;;5052823;28;20033;-68
2023/08/14 01:18:57;;;;;;;13.65;6.50;;;16.40;99.90;;;;;;5045303;28;20032;-68
2023/08/14 01:21:36;;;;;;;17.60;5.80;;;16.40;99.90;;;;;;5067991;28;20380;-68
2023/08/14 01:24:20;;;;;;;17.10;5.20;;;16.40;99.90;;;;;;5067472;28;20074;-69
2023/08/14 01:26:46;;;;;;;17.80;5.70;;;16.40;99.90;;;;;;5062539;28;20038;-68
2023/08/14 01:29:13;;;;;;;12.93;5.03;;;16.40;99.90;;;;;;5057872;28;20068;-68
2023/08/14 01:31:38;;;;;;;14.25;5.40;;;16.50;99.90;;;;;;5068723;28;20060;-68
2023/08/14 01:34:04;;;;;;;15.43;6.07;;;16.40;99.90;;;;;;5052756;28;20055;-68
2023/08/14 01:36:32;;;;;;;14.30;5.70;;;16.40;99.90;;;;;;5061604;28;20040;-68
2023/08/14 01:39:12;;;;;;;18.52;6.28;;;16.40;99.90;;;;;;5059674;28;20029;-67
2023/08/14 01:41:41;;;;;;;17.95;5.97;;;16.40;99.90;;;;;;5068505;28;20039;-70
2023/08/14 01:44:10;;;;;;;14.68;5.40;;;16.40;99.90;;;;;;5051504;28;20049;-67
2023/08/14 01:46:38;;;;;;;19.13;6.63;;;16.40;99.90;;;;;;5057459;28;20016;-67
2023/08/14 01:49:04;;;;;;;17.65;6.70;;;16.40;99.90;;;;;;5064866;28;20113;-70
2023/08/14 01:51:31;;;;;;;18.65;6.57;;;16.40;99.90;;;;;;5055206;28;20535;-67
2023/08/14 01:53:57;;;;;;;18.30;6.15;;;16.40;99.90;;;;;;5067996;28;20028;-67
2023/08/14 01:56:23;;;;;;;17.60;6.45;;;16.30;99.90;;;;;;5059184;28;20082;-68
2023/08/14 01:58:48;;;;;;;16.60;6.15;;;16.30;99.90;;;;;;5060617;28;20033;-67
2023/08/14 02:01:14;;;;;;;15.25;5.45;;;16.30;99.90;;;;;;5066115;28;20040;-68
2023/08/14 02:03:39;;;;;;;14.43;6.07;;;16.30;99.90;;;;;;5053393;28;20036;-68
2023/08/14 02:06:05;;;;;;;15.75;5.28;;;16.30;99.90;;;;;;5056515;28;20514;-68
2023/08/14 02:08:30;;;;;;;15.98;5.43;;;16.30;99.90;;;;;;5063322;28;20052;-67
2023/08/14 02:10:56;;;;;;;18.23;5.35;;;16.30;99.90;;;;;;5063440;28;20033;-67
2023/08/14 02:13:21;;;;;;;17.25;5.65;;;16.20;99.90;;;;;;5055911;28;20033;-67
2023/08/14 02:15:47;;;;;;;16.30;5.80;;;16.20;99.90;;;;;;5068200;28;20028;-67
2023/08/14 02:18:13;;;;;;;16.98;5.70;;;16.20;99.90;;;;;;5057571;28;20028;-67
2023/08/14 02:20:46;;;;;;;16.10;5.57;;;16.20;99.90;;;;;;5061730;28;20025;-69
2023/08/14 02:23:12;;;;;;;16.30;5.35;;;16.20;99.90;;;;;;5065823;28;20037;-67
2023/08/14 02:25:41;;;;;;;17.40;5.53;;;16.20;99.90;;;;;;5054879;28;20048;-67
2023/08/14 02:28:07;;;;;;;15.20;5.47;;;16.20;99.90;;;;;;5066092;28;20067;-67
2023/08/14 02:30:36;;;;;;;15.30;4.90;;;16.20;99.90;;;;;;5054445;28;20391;-69
2023/08/14 02:33:02;;;;;;;15.00;5.40;;;16.20;99.90;;;;;;5060109;28;20461;-66
2023/08/14 02:35:27;;;;;;;11.52;5.10;;;16.20;99.90;;;;;;5068732;28;20035;-67
2023/08/14 02:37:53;;;;;;;17.92;6.15;;;16.20;99.90;;;;;;5058394;28;20024;-68
2023/08/14 02:40:19;;;;;;;17.80;6.15;;;16.20;99.90;;;;;;5068400;28;20041;-69
2023/08/14 02:42:44;;;;;;;15.70;5.78;;;16.20;99.90;;;;;;5065238;28;20052;-67
2023/08/14 02:45:10;;;;;;;16.17;6.18;;;16.20;99.90;;;;;;5062692;28;20103;-67
2023/08/14 02:47:35;;;;;;;15.20;5.68;;;16.20;99.90;;;;;;5059666;28;20099;-67
2023/08/14 02:50:01;;;;;;;17.80;5.95;;;16.20;99.90;;;;;;5070254;28;20100;-69
2023/08/14 02:52:27;;;;;;;16.23;5.90;;;16.20;99.90;;;;;;5062837;28;20021;-67
2023/08/14 02:54:52;;;;;;;15.90;6.13;;;16.20;99.90;;;;;;5063681;28;20032;-66
2023/08/14 02:57:18;;;;;;;20.40;6.03;;;16.20;99.90;;;;;;5070257;28;20078;-67
2023/08/14 02:59:43;;;;;;;21.98;6.65;;;16.20;99.90;;;;;;5058081;28;20025;-67
2023/08/14 03:02:09;;;;;;;19.70;6.25;;;16.20;99.90;;;;;;5068870;28;20024;-68
2023/08/14 03:04:34;;;;;;;18.48;6.35;;;16.20;99.90;;;;;;5063313;28;20032;-67
2023/08/14 03:07:00;;;;;;;18.48;6.80;;;16.20;99.90;;;;;;5062166;28;20479;-67
2023/08/14 03:09:25;;;;;;;18.02;7.07;;;16.20;99.90;;;;;;5070995;28;20322;-68
2023/08/14 03:11:51;;;;;;;20.17;6.22;;;16.20;99.90;;;;;;5057895;28;20464;-67
2023/08/14 03:14:17;;;;;;;17.23;6.32;;;16.10;99.90;;;;;;5067932;28;20032;-67
2023/08/14 03:16:42;;;;;;;16.90;6.57;;;16.10;99.90;;;;;;5064449;28;20492;-67
2023/08/14 03:19:08;;;;;;;17.85;6.35;;;16.10;99.90;;;;;;5060518;28;20416;-69
2023/08/14 03:21:33;;;;;;;20.58;6.43;;;16.10;99.90;;;;;;5070824;28;20045;-68
2023/08/14 03:23:59;;;;;;;18.38;6.78;;;16.10;99.90;;;;;;5058200;28;20032;-69
2023/08/14 03:26:25;;;;;;;20.30;7.05;;;16.10;99.90;;;;;;5066442;28;20060;-67
2023/08/14 03:28:50;;;;;;;20.73;6.80;;;16.10;99.90;;;;;;5065348;28;20032;-68
2023/08/14 03:31:16;;;;;;;18.13;7.57;;;16.10;99.90;;;;;;5059223;28;20036;-67
2023/08/14 03:33:41;;;;;;;18.92;6.95;;;16.10;99.90;;;;;;5070296;28;20029;-68
2023/08/14 03:36:07;;;;;;;17.42;7.40;;;16.10;99.90;;;;;;5058965;28;20016;-67
2023/08/14 03:38:32;;;;;;;21.02;8.18;;;16.10;99.90;;;;;;5065187;28;20104;-67
2023/08/14 03:40:58;;;;;;;18.17;8.10;;;16.00;99.90;;;;;;5066193;28;20128;-67
2023/08/14 03:43:23;;;;;;;20.88;7.57;;;16.00;99.90;;;;;;5057924;28;20136;-67
2023/08/14 03:45:50;;;;;;;19.50;8.65;;;16.00;99.90;;;;;;5057962;28;20470;-68
2023/08/14 03:48:15;;;;;;;17.23;6.88;;;16.00;99.90;;;;;;5061055;28;20473;-66
2023/08/14 03:50:45;;;;;;;16.92;7.38;;;16.00;99.90;;;;;;5063695;28;20024;-68
2023/08/14 03:53:11;;;;;;;18.92;7.47;;;16.00;99.90;;;;;;5067700;28;20460;-67
2023/08/14 03:55:36;;;;;;;21.63;7.03;;;16.00;99.90;;;;;;5055801;28;20028;-68
2023/08/14 03:58:02;;;;;;;17.00;7.13;;;16.00;99.90;;;;;;5069074;28;20354;-67
2023/08/14 04:00:27;;;;;;;22.35;6.90;;;16.00;99.90;;;;;;5061451;28;20758;-68
2023/08/14 04:02:53;;;;;;;18.40;6.93;;;16.00;99.90;;;;;;5062067;28;20021;-66
2023/08/14 04:05:19;;;;;;;17.38;7.45;;;16.00;99.90;;;;;;5068854;28;20025;-68
2023/08/14 04:07:44;;;;;;;15.25;6.38;;;16.00;99.90;;;;;;5057144;28;20044;-68
2023/08/14 04:10:10;;;;;;;18.35;7.53;;;16.00;99.90;;;;;;5067851;28;20024;-69
2023/08/14 04:12:35;;;;;;;16.88;7.25;;;16.00;99.90;;;;;;5062969;28;20065;-67
2023/08/14 04:15:17;;;;;;;20.02;7.25;;;16.00;99.90;;;;;;5060931;28;20380;-67
2023/08/14 04:17:43;;;;;;;18.27;7.17;;;16.00;99.90;;;;;;5069736;28;20025;-68
2023/08/14 04:20:09;;;;;;;20.05;7.18;;;16.00;99.90;;;;;;5058788;28;20293;-67
2023/08/14 04:22:35;;;;;;;16.48;7.88;;;16.00;99.90;;;;;;5063965;28;20027;-67
2023/08/14 04:25:01;;;;;;;16.05;7.32;;;16.00;99.90;;;;;;5066002;28;20028;-67
2023/08/14 04:27:27;;;;;;;15.63;6.88;;;16.10;99.90;;;;;;5056732;28;20024;-67
2023/08/14 04:29:53;;;;;;;18.20;7.57;;;16.10;99.90;;;;;;5062530;28;20070;-69
2023/08/14 04:32:19;;;;;;;19.55;7.75;;;16.10;99.90;;;;;;5060863;28;20039;-67
2023/08/14 04:34:44;;;;;;;21.50;7.82;;;16.10;99.90;;;;;;5062787;28;20025;-67
2023/08/14 04:37:10;;;;;;;19.50;7.63;;;16.10;99.90;;;;;;5066151;28;20040;-67
2023/08/14 04:39:35;;;;;;;17.80;7.25;;;16.10;99.90;;;;;;5055036;28;20033;-68
2023/08/14 04:42:01;;;;;;;17.67;6.85;;;16.10;99.90;;;;;;5057580;28;20033;-67
2023/08/14 04:44:26;;;;;;;15.40;7.32;;;16.20;99.90;;;;;;5064642;28;20053;-67
2023/08/14 04:46:52;;;;;;;15.13;7.05;;;16.20;99.90;;;;;;5064310;28;20040;-67
2023/08/14 04:49:17;;;;;;;15.07;7.50;;;16.20;99.90;;;;;;5072595;28;20050;-69
2023/08/14 04:51:43;;;;;;;17.13;6.45;;;16.20;99.90;;;;;;5055990;28;20086;-65
2023/08/14 04:54:08;;;;;;;17.23;6.95;;;16.20;99.90;;;;;;5066964;28;20024;-67
2023/08/14 04:56:34;;;;;;;13.23;6.55;;;16.30;99.90;;;;;;5061556;28;20449;-67
2023/08/14 04:59:00;;;;;;;14.75;6.32;;;16.30;99.90;;;;;;5059382;28;20040;-67
2023/08/14 05:01:25;;;;;;;16.90;6.40;;;16.30;99.90;;;;;;5055068;28;20037;-66
2023/08/14 05:03:51;;;;;;;12.32;6.32;;;16.40;99.90;;;;;;5061827;28;20032;-68
2023/08/14 05:06:17;;;;;;;14.43;6.50;;;16.50;99.90;;;;;;5054434;28;20042;-66
2023/08/14 05:08:42;;;;;;;14.23;5.60;;;16.50;99.90;;;;;;5072645;28;20031;-66
2023/08/14 05:11:08;;;;;;;11.90;6.43;;;16.50;99.90;;;;;;5058457;28;20396;-66
2023/08/14 05:13:33;;;;;;;13.70;5.63;;;16.60;99.90;;;;;;5069025;28;20107;-67
2023/08/14 05:15:59;;;;;;;14.30;6.03;;;16.60;99.90;;;;;;5056496;28;20098;-66
2023/08/14 05:18:24;;;;;;;9.95;5.30;;;16.60;99.90;;;;;;5064380;28;20032;-66
2023/08/14 05:20:50;;;;;;;14.05;5.82;;;16.60;99.90;;;;;;5062802;28;20047;-66
2023/08/14 05:23:16;;;;;;;14.32;5.40;;;16.60;99.90;;;;;;5057171;28;20449;-66
2023/08/14 05:25:43;;;;;;;11.18;5.45;;;16.70;99.90;;;;;;5053845;28;20056;-67
2023/08/14 05:28:08;;;;;;;12.82;4.85;;;16.70;99.90;;;;;;5067058;28;20048;-67
2023/08/14 05:30:34;;;;;;;10.30;5.07;;;16.70;99.90;;;;;;5060782;28;20067;-67
2023/08/14 05:33:00;;;;;;;11.55;4.65;;;16.80;99.90;;;;;;5059637;28;20064;-67
2023/08/14 05:35:26;;;;;;;14.20;5.07;;;16.80;99.90;;;;;;5068205;28;20032;-69
2023/08/14 05:37:52;;;;;;;8.20;4.80;;;16.90;99.90;;;;;;5055490;28;20033;-67
2023/08/14 05:40:19;;;;;;;10.73;4.53;;;16.90;99.90;;;;;;5065508;28;20104;-67
2023/08/14 05:42:48;;;;;;;12.85;4.18;;;16.90;99.90;;;;;;5051411;28;20090;-66
2023/08/14 05:45:14;;;;;;;10.68;4.55;;;17.00;99.90;;;;;;5055093;28;20384;-66
2023/08/14 05:47:39;;;;;;;13.77;5.35;;;17.10;99.90;;;;;;5056782;28;20066;-66
2023/08/14 05:50:06;;;;;;;12.07;4.68;;;17.10;99.90;;;;;;5066801;28;20025;-66
2023/08/14 05:52:31;;;;;;;12.07;4.70;;;17.20;99.90;;;;;;5060468;28;20028;-67
2023/08/14 05:54:57;;;;;;;9.85;4.20;;;17.30;99.90;;;;;;5060014;28;20104;-68
2023/08/14 05:57:22;;;;;;;8.70;4.03;;;17.30;99.90;;;;;;5067709;28;20036;-66
2023/08/14 05:59:48;;;;;;;7.90;4.13;;;17.40;99.90;;;;;;5054881;28;20779;-67
2023/08/14 06:02:13;;;;;;;8.18;3.78;;;17.60;99.90;;;;;;5065399;28;20040;-66
2023/08/14 06:04:40;;;;;;;12.23;4.00;;;17.70;99.90;;;;;;5061459;28;20024;-67
2023/08/14 06:07:06;;;;;;;9.30;3.78;;;17.90;99.90;;;;;;5053615;28;20041;-67
2023/08/14 06:09:31;;;;;;;5.45;3.47;;;18.10;99.90;;;;;;5056106;28;20064;-68
2023/08/14 06:11:57;;;;;;;6.90;3.63;;;18.20;99.90;;;;;;5071538;28;20029;-68
2023/08/14 06:14:22;;;;;;;10.05;3.17;;;18.40;99.90;;;;;;5063177;28;20025;-68
2023/08/14 06:16:48;;;;;;;7.72;3.20;;;18.50;99.90;;;;;;5065051;28;20361;-68
2023/08/14 06:19:13;;;;;;;10.25;3.58;;;18.60;99.90;;;;;;5069968;28;20528;-65
2023/08/14 06:21:39;;;;;;;10.68;3.20;;;18.70;99.90;;;;;;5058790;28;20043;-66
2023/08/14 06:24:05;;;;;;;6.30;2.92;;;18.80;99.90;;;;;;5061251;28;20032;-66
2023/08/14 06:26:30;;;;;;;10.38;3.38;;;18.90;99.90;;;;;;5066820;28;20033;-65
2023/08/14 06:28:56;;;;;;;7.03;3.28;;;19.00;99.90;;;;;;5059759;28;20056;-65
2023/08/14 06:31:21;;;;;;;7.55;2.90;;;19.00;99.90;;;;;;5063479;28;20029;-67
2023/08/14 06:33:49;;;;;;;10.27;3.33;;;19.00;99.90;;;;;;5071996;28;20024;-67
2023/08/14 06:36:15;;;;;;;9.05;2.85;;;19.10;99.90;;;;;;5061721;28;20021;-67
2023/08/14 06:38:40;;;;;;;4.65;2.38;;;19.10;99.90;;;;;;5065295;28;20120;-69
2023/08/14 06:41:06;;;;;;;7.30;2.85;;;19.30;99.90;;;;;;5068758;28;20063;-67
2023/08/14 06:43:32;;;;;;;5.88;3.10;;;19.40;99.90;;;;;;5058040;28;20103;-67
2023/08/14 06:45:57;;;;;;;7.18;2.60;;;19.50;99.90;;;;;;5060533;28;20040;-67
2023/08/14 06:48:23;;;;;;;5.00;2.28;;;19.70;99.90;;;;;;5062861;28;20028;-67
2023/08/14 06:50:48;;;;;;;10.93;2.70;;;19.70;99.90;;;;;;5064067;28;20425;-66
2023/08/14 06:53:14;;;;;;;6.30;2.30;;;19.90;99.90;;;;;;5069397;28;20086;-68
2023/08/14 06:55:43;;;;;;;7.60;2.45;;;20.00;99.90;;;;;;5056974;28;20103;-68
2023/08/14 06:58:09;;;;;;;6.20;2.20;;;20.10;99.90;;;;;;5069428;28;20021;-67
2023/08/14 07:00:34;;;;;;;7.85;2.38;;;20.20;99.90;;;;;;5064018;28;20123;-68
2023/08/14 07:03:00;;;;;;;6.60;2.63;;;20.40;99.90;;;;;;5062532;28;20127;-67
2023/08/14 07:05:25;;;;;;;5.55;2.50;;;20.50;99.90;;;;;;5070856;28;20056;-66
2023/08/14 07:07:51;;;;;;;6.25;2.58;;;20.60;99.90;;;;;;5057625;28;20025;-67
2023/08/14 07:10:17;;;;;;;6.25;1.90;;;20.90;99.90;;;;;;5068145;28;20083;-67
2023/08/14 07:12:43;;;;;;;6.60;2.10;;;21.10;99.90;;;;;;5064016;28;20071;-67
2023/08/14 07:15:10;;;;;;;9.90;3.33;;;21.30;99.90;;;;;;5067973;28;20441;-67
2023/08/14 07:17:36;;;;;;;11.57;4.57;;;21.30;99.90;;;;;;5056984;28;20036;-66
2023/08/14 07:20:02;;;;;;;9.68;3.28;;;21.30;99.90;;;;;;5070193;28;20033;-69
2023/08/14 07:22:27;;;;;;;12.13;4.18;;;21.30;99.90;;;;;;5061726;28;20051;-66
2023/08/14 07:24:53;;;;;;;9.18;3.30;;;21.30;99.90;;;;;;5062454;28;20033;-68
2023/08/14 07:27:19;;;;;;;7.40;3.67;;;21.60;99.90;;;;;;5069074;28;20054;-67
2023/08/14 07:29:44;;;;;;;7.53;2.63;;;22.50;99.90;;;;;;5057621;28;20362;-67
2023/08/14 07:32:10;;;;;;;12.45;4.15;;;23.20;99.90;;;;;;5068785;28;20037;-69
2023/08/14 07:34:35;;;;;;;7.35;3.50;;;23.40;99.90;;;;;;5061888;28;20031;-67
2023/08/14 07:37:01;;;;;;;9.90;3.15;;;23.50;99.90;;;;;;5061740;28;20029;-67
2023/08/14 07:39:26;;;;;;;7.20;2.88;;;23.50;99.90;;;;;;5070044;28;20178;-67
2023/08/14 07:41:52;;;;;;;7.65;3.03;;;23.60;99.90;;;;;;5056700;28;20068;-66
2023/08/14 07:44:17;;;;;;;7.55;2.53;;;23.70;99.90;;;;;;5067025;28;20079;-68
2023/08/14 07:46:43;;;;;;;6.95;2.58;;;23.70;99.90;;;;;;5059106;28;20033;-66
2023/08/14 07:49:09;;;;;;;5.65;2.03;;;23.50;99.90;;;;;;5064518;28;20100;-69
2023/08/14 07:51:35;;;;;;;7.13;2.90;;;23.30;99.90;;;;;;5069859;28;20048;-69
2023/08/14 07:54:01;;;;;;;7.55;2.67;;;23.30;99.90;;;;;;5057981;28;20373;-67
2023/08/14 07:56:26;;;;;;;6.43;2.67;;;23.40;99.90;;;;;;5065645;28;20029;-66
2023/08/14 07:58:52;;;;;;;8.13;2.55;;;23.70;99.90;;;;;;5065360;28;20040;-67
2023/08/14 08:01:17;;;;;;;7.30;2.40;;;24.20;99.90;;;;;;5058744;28;20052;-67
2023/08/14 08:03:43;;;;;;;6.63;2.45;;;24.80;99.90;;;;;;5070565;28;20039;-69
2023/08/14 08:06:09;;;;;;;6.10;2.17;;;25.40;99.90;;;;;;5059333;28;20456;-70
2023/08/14 08:08:34;;;;;;;7.05;2.28;;;26.20;99.80;;;;;;5064176;28;20028;-68
2023/08/14 08:11:01;;;;;;;5.65;2.20;;;27.20;98.40;;;;;;5065776;28;20028;-68
2023/08/14 08:13:27;;;;;;;9.15;2.88;;;28.20;97.40;;;;;;5056797;28;20036;-67
2023/08/14 08:15:52;;;;;;;4.82;1.90;;;29.20;96.20;;;;;;5059261;28;20025;-67
2023/08/14 08:18:18;;;;;;;6.28;3.10;;;29.80;95.40;;;;;;5061012;28;20476;-69
2023/08/14 08:20:43;;;;;;;5.07;2.25;;;30.40;94.40;;;;;;5062516;28;20025;-68
2023/08/14 08:23:09;;;;;;;3.00;1.85;;;31.00;94.20;;;;;;5058714;28;20029;-68
2023/08/14 08:25:35;;;;;;;5.70;1.88;;;31.00;93.00;;;;;;5062925;28;20147;-68
2023/08/14 08:28:00;;;;;;;6.15;1.90;;;30.90;93.30;;;;;;5068884;28;20025;-70
2023/08/14 08:30:26;;;;;;;4.80;2.10;;;30.60;93.40;;;;;;5060929;28;20067;-71
2023/08/14 08:32:51;;;;;;;5.65;1.90;;;30.30;93.80;;;;;;5061005;28;20029;-67
2023/08/14 08:35:17;;;;;;;3.63;1.42;;;30.20;93.70;;;;;;5067975;28;20032;-69
2023/08/14 08:37:42;;;;;;;6.72;2.45;;;30.10;93.30;;;;;;5056395;28;20032;-68
2023/08/14 08:40:09;;;;;;;5.25;1.80;;;29.90;93.40;;;;;;5066715;28;20041;-68
2023/08/14 08:42:35;;;;;;;5.97;1.90;;;29.60;93.70;;;;;;5071522;28;20111;-68
2023/08/14 08:45:04;;;;;;;5.57;2.03;;;29.80;93.90;;;;;;5060349;28;20124;-68
2023/08/14 08:47:31;;;;;;;3.55;1.70;;;30.20;93.70;;;;;;5063716;28;20156;-69
2023/08/14 08:49:59;;;;;;;6.80;1.77;;;30.50;93.80;;;;;;5063790;28;20032;-67
2023/08/14 08:52:25;;;;;;;5.30;1.80;;;30.60;92.90;;;;;;5059839;28;20458;-68
2023/08/14 08:54:51;;;;;;;3.25;1.45;;;30.40;92.80;;;;;;5054912;28;20027;-70
2023/08/14 08:57:18;;;;;;;7.65;1.40;;;30.30;93.00;;;;;;5057673;28;20403;-69
2023/08/14 08:59:44;;;;;;;8.10;1.75;;;31.00;91.90;;;;;;5067527;28;20033;-68
2023/08/14 09:02:10;;;;;;;3.38;1.38;;;31.70;91.40;;;;;;5057118;28;20071;-67
2023/08/14 09:04:36;;;;;;;3.97;1.52;;;32.20;90.40;;;;;;5053690;28;20025;-69
2023/08/14 09:07:01;;;;;;;4.40;2.03;;;32.50;90.30;;;;;;5065566;28;20112;-69
2023/08/14 09:09:27;;;;;;;4.72;1.77;;;33.30;90.00;;;;;;5056309;28;20028;-67
2023/08/14 09:11:52;;;;;;;3.75;1.52;;;34.40;88.90;;;;;;5068992;28;20035;-71
2023/08/14 09:14:18;;;;;;;3.88;1.40;;;35.40;86.70;;;;;;5058885;28;20370;-71
2023/08/14 09:16:47;;;;;;;5.13;1.55;;;35.90;85.50;;;;;;5067446;28;20426;-68
2023/08/14 09:19:15;;;;;;;4.22;1.50;;;36.00;84.60;;;;;;5067525;28;20029;-68
2023/08/14 09:21:43;;;;;;;6.75;1.65;;;35.60;83.80;;;;;;5055602;28;20044;-68
2023/08/14 09:24:10;;;;;;;7.45;1.60;;;34.60;85.20;;;;;;5066690;28;20032;-68
2023/08/14 09:26:36;;;;;;;4.00;1.33;;;34.20;86.30;;;;;;5061345;28;20456;-68
2023/08/14 09:29:03;;;;;;;7.88;1.58;;;33.80;86.70;;;;;;5059601;28;20033;-67
2023/08/14 09:31:31;;;;;;;3.50;1.58;;;33.20;87.80;;;;;;5068704;28;20036;-70
2023/08/14 09:33:56;;;;;;;7.97;1.55;;;32.80;88.50;;;;;;5040104;28;20031;-70
2023/08/14 09:36:22;;;;;;;7.80;1.95;;;33.10;89.00;;;;;;5064897;28;20029;-68
2023/08/14 09:38:51;;;;;;;4.72;2.22;;;33.60;88.10;;;;;;5062949;28;20029;-70
2023/08/14 09:41:19;;;;;;;5.53;1.90;;;34.30;86.60;;;;;;5057238;28;20483;-71
2023/08/14 09:43:45;;;;;;;5.65;1.67;;;34.50;86.40;;;;;;5067962;28;20494;-68
2023/08/14 09:46:14;;;;;;;3.45;1.40;;;35.20;85.70;;;;;;5064295;28;20033;-71
2023/08/14 09:48:46;;;;;;;6.70;2.42;;;35.60;85.30;;;;;;5068362;28;20163;-71
2023/08/14 09:51:16;;;;;;;4.47;1.30;;;35.80;84.60;;;;;;5064087;28;20075;-70
2023/08/14 09:54:03;;;;;;;5.65;1.48;;;35.60;84.10;;;;;;5065925;28;20021;-69
2023/08/14 09:56:29;;;;;;;3.92;1.45;;;35.30;84.60;;;;;;5070143;28;20091;-68
2023/08/14 09:58:54;;;;;;;3.63;1.60;;;35.50;83.90;;;;;;5070439;28;20487;-70
2023/08/14 10:01:21;;;;;;;6.15;1.80;;;35.50;83.90;;;;;;5063249;28;20041;-72
2023/08/14 10:03:52;;;;;;;3.50;1.42;;;35.70;83.50;;;;;;5077239;28;20449;-69
2023/08/14 10:06:19;;;;;;;3.47;1.58;;;35.70;83.70;;;;;;5071890;28;20476;-68
2023/08/14 10:08:46;;;;;;;6.18;1.73;;;36.20;83.40;;;;;;5068778;28;20041;-67
2023/08/14 10:11:15;;;;;;;7.25;2.10;;;36.90;82.30;;;;;;5063667;28;20074;-71
2023/08/14 10:13:50;;;;;;;6.57;1.83;;;37.40;81.10;;;;;;5074479;28;20020;-68
2023/08/14 10:16:26;;;;;;;5.32;1.83;;;37.20;81.00;;;;;;5063295;28;20050;-68
2023/08/14 10:18:54;;;;;;;5.20;2.03;;;36.70;81.90;;;;;;5058016;28;20028;-71
2023/08/14 10:21:20;;;;;;;3.42;1.60;;;36.60;81.90;;;;;;5057819;28;20045;-72
2023/08/14 10:23:47;;;;;;;4.63;1.67;;;37.10;81.50;;;;;;5058084;28;20056;-72
2023/08/14 10:26:14;;;;;;;5.72;1.92;;;37.70;81.00;;;;;;5057563;28;20381;-70
2023/08/14 10:28:40;;;;;;;6.30;1.83;;;37.80;80.40;;;;;;5057967;28;20028;-69
2023/08/14 10:31:09;;;;;;;7.03;2.20;;;38.00;79.10;;;;;;5058476;28;20017;-70
2023/08/14 10:33:34;;;;;;;4.57;1.67;;;37.40;79.80;;;;;;5058892;28;20033;-70
2023/08/14 10:36:01;;;;;;;7.30;2.05;;;36.70;80.30;;;;;;5073576;28;20095;-68
2023/08/14 10:38:41;;;;;;;3.28;1.42;;;36.20;80.70;;;;;;5064474;28;20025;-68
2023/08/14 10:41:07;;;;;;;7.65;1.67;;;36.10;80.20;;;;;;5067973;28;20082;-68
2023/08/14 10:43:33;;;;;;;4.88;1.60;;;36.00;79.40;;;;;;5061363;28;20059;-69
2023/08/14 10:45:59;;;;;;;6.53;1.50;;;35.70;79.70;;;;;;5058669;28;20432;-68
2023/08/14 10:48:24;;;;;;;4.13;1.63;;;35.80;80.20;;;;;;5060398;28;20388;-68
2023/08/14 10:50:59;;;;;;;5.97;1.30;;;35.80;80.20;;;;;;5055768;28;20397;-69
2023/08/14 10:53:29;;;;;;;5.85;2.08;;;36.10;79.80;;;;;;5049354;28;20017;-68
2023/08/14 10:55:55;;;;;;;3.47;1.45;;;35.90;80.90;;;;;;5054709;28;20039;-68
2023/08/14 10:58:30;;;;;;;9.10;1.85;;;35.00;81.20;;;;;;5054085;28;20777;-69
2023/08/14 11:01:00;;;;;;;4.95;1.80;;;34.40;82.20;;;;;;5049640;28;20366;-68
2023/08/14 11:03:26;;;;;;;5.72;1.73;;;34.30;81.60;;;;;;5050647;28;20071;-71
2023/08/14 11:05:52;;;;;;;6.20;1.67;;;34.40;81.00;;;;;;5052891;28;20534;-68
2023/08/14 11:08:18;;;;;;;6.00;1.30;;;34.00;82.10;;;;;;5053601;28;20033;-68
2023/08/14 11:10:44;;;;;;;4.88;1.65;;;33.60;82.90;;;;;;5053652;28;20036;-68
2023/08/14 11:13:10;;;;;;;8.27;1.65;;;33.30;83.20;;;;;;5053941;28;20029;-68
2023/08/14 11:15:37;;;;;;;4.13;1.60;;;32.50;84.50;;;;;;5054002;28;20017;-68
2023/08/14 11:18:10;;;;;;;5.90;1.92;;;31.80;86.10;;;;;;5053602;28;20075;-67
2023/08/14 11:20:45;;;;;;;10.15;1.88;;;31.40;87.20;;;;;;5049522;28;20057;-68
2023/08/14 11:23:11;;;;;;;6.65;1.67;;;32.20;86.80;;;;;;5053348;28;20079;-69
2023/08/14 11:25:37;;;;;;;5.18;1.75;;;32.80;85.20;;;;;;5054442;28;20029;-70
2023/08/14 11:28:04;;;;;;;3.05;1.58;;;33.40;83.70;;;;;;5055035;28;20093;-67
2023/08/14 11:30:34;;;;;;;5.63;1.40;;;33.80;83.10;;;;;;5054976;28;20140;-68
2023/08/14 11:33:04;;;;;;;4.75;1.40;;;34.10;82.40;;;;;;5054510;28;20029;-68
2023/08/14 11:35:30;;;;;;;4.93;1.25;;;34.60;81.80;;;;;;5054640;28;20067;-68
2023/08/14 11:37:56;;;;;;;5.55;1.50;;;35.60;79.80;;;;;;5054542;28;20104;-70
2023/08/14 11:40:22;;;;;;;6.32;1.67;;;36.20;80.00;;;;;;5054365;28;20025;-70
2023/08/14 11:42:47;;;;;;;5.88;1.77;;;36.50;79.80;;;;;;5054148;28;20381;-69
2023/08/14 11:45:13;;;;;;;4.80;1.42;;;36.70;78.50;;;;;;5054824;28;20048;-69
2023/08/14 11:47:47;;;;;;;4.82;1.95;;;36.70;77.70;;;;;;5054066;28;20469;-69
2023/08/14 11:50:14;;;;;;;4.10;1.50;;;36.60;78.00;;;;;;5053606;28;20029;-68
2023/08/14 11:52:40;;;;;;;4.68;1.50;;;36.40;77.70;;;;;;5055299;28;20147;-68
2023/08/14 11:55:07;;;;;;;6.78;1.52;;;36.20;77.50;;;;;;5054572;28;20048;-68
2023/08/14 11:57:32;;;;;;;3.28;1.52;;;35.80;78.10;;;;;;5054228;28;20155;-68
2023/08/14 11:59:59;;;;;;;4.93;1.30;;;35.20;78.80;;;;;;5052943;28;20487;-72
2023/08/14 12:02:28;;;;;;;4.15;1.35;;;34.60;79.40;;;;;;5053550;28;20043;-68
2023/08/14 12:05:00;;;;;;;10.15;2.15;;;34.00;80.30;;;;;;5053292;28;20044;-71
2023/08/14 12:07:27;;;;;;;3.78;1.58;;;33.30;81.10;;;;;;5050420;28;20024;-68
2023/08/14 12:09:54;;;;;;;4.53;1.40;;;33.50;81.30;;;;;;5052807;28;20021;-69
2023/08/14 12:12:20;;;;;;;8.35;1.75;;;34.00;80.00;;;;;;5051881;28;20372;-69
2023/08/14 12:14:48;;;;;;;4.50;1.40;;;34.30;80.50;;;;;;5050313;28;20025;-68
2023/08/14 12:17:15;;;;;;;5.32;1.33;;;34.40;80.20;;;;;;5053244;28;20029;-71
2023/08/14 12:19:42;;;;;;;6.07;1.55;;;34.20;79.80;;;;;;5053463;28;20033;-68
2023/08/14 12:22:09;;;;;;;4.00;1.27;;;34.10;79.40;;;;;;5053300;28;20507;-70
2023/08/14 12:24:42;;;;;;;5.47;1.45;;;34.00;79.80;;;;;;5053650;28;20040;-72
2023/08/14 12:27:18;;;;;;;6.78;1.58;;;34.40;79.40;;;;;;5053086;28;20108;-70
2023/08/14 12:29:44;;;;;;;4.28;1.23;;;35.20;79.50;;;;;;5053118;28;20483;-72
2023/08/14 12:32:10;;;;;;;5.90;1.60;;;35.10;78.60;;;;;;5053331;28;20061;-73
2023/08/14 12:34:36;;;;;;;5.18;1.40;;;35.10;78.80;;;;;;5052598;28;20032;-69
2023/08/14 12:37:02;;;;;;;4.40;1.50;;;35.20;78.90;;;;;;5052777;28;20388;-68